This is the latest recevied weather packets stored in our database for station/object DG5MNJ. If no packets are shown the sender has not sent any weather packets the latest 10 day(s).
| Time | Temp. | Humidity | Pressure | Rain* | Wind** | Luminosity | Snow |
|---|---|---|---|---|---|---|---|
| 1777490122 | 11.67° C | 37% | 1020.8 hPa | 0 mm | - | 0 W/m² | - |
| 1777488002 | 12.78° C | 35% | 1020.3 hPa | 0 mm | - | 0 W/m² | - |
| 1777487402 | 13.33° C | 35% | 1020.1 hPa | 0 mm | - | 0 W/m² | - |
| 1777487102 | 13.33° C | 34% | 1020.1 hPa | 0 mm | - | 0 W/m² | - |
| 1777484722 | 14.44° C | 33% | 1019.3 hPa | 0 mm | - | 15 W/m² | - |
| 1777483202 | 15° C | 33% | 1019 hPa | 0 mm | - | 40 W/m² | - |
| 1777482602 | 15.56° C | 32% | 1019.1 hPa | 0 mm | - | 108 W/m² | - |
| 1777482002 | 15.56° C | 32% | 1018.8 hPa | 0 mm | - | 135 W/m² | - |
| 1777481402 | 16.11° C | 33% | 1019 hPa | 0 mm | - | 187 W/m² | - |
| 1777479901 | 16.67° C | 33% | 1018.8 hPa | 0 mm | - | 265 W/m² | - |
| 1777479301 | 16.67° C | 32% | 1018.7 hPa | 0 mm | - | 295 W/m² | - |
| 1777476003 | 17.22° C | 32% | 1018.6 hPa | 0 mm | - | 465 W/m² | - |
| 1777474803 | 16.67° C | 34% | 1018.5 hPa | 0 mm | - | 515 W/m² | - |
| 1777474223 | 16.67° C | 35% | 1018.4 hPa | 0 mm | - | 546 W/m² | - |
| 1777472703 | 16.67° C | 34% | 1018.5 hPa | 0 mm | - | 615 W/m² | - |
| 1777470302 | 16.11° C | 34% | 1018.7 hPa | 0 mm | - | 710 W/m² | - |
| 1777469402 | 16.67° C | 34% | 1018.6 hPa | 0 mm | - | 740 W/m² | - |
| 1777468802 | 16.11° C | 36% | 1018.7 hPa | 0 mm | - | 760 W/m² | - |
| 1777467002 | 16.11° C | 36% | 1018.9 hPa | 0 mm | - | 805 W/m² | - |
| 1777466702 | 16.11° C | 36% | 1018.9 hPa | 0 mm | - | 812 W/m² | - |
| 1777466123 | 16.11° C | 36% | 1018.8 hPa | 0 mm | - | 824 W/m² | - |
| 1777463702 | 15.56° C | 36% | 1018.7 hPa | 0 mm | - | 869 W/m² | - |
| 1777460402 | 14.44° C | 37% | 1019.1 hPa | 0 mm | - | 893 W/m² | - |
| 1777459502 | 14.44° C | 38% | 1019 hPa | 0 mm | - | 831 W/m² | - |
| 1777458302 | 14.44° C | 38% | 1019 hPa | 0 mm | - | 905 W/m² | - |
* Rain latest hour (hover to see other rain measurements)
** Current wind speed in m/s (hover to see current wind gust speed)